Time;durP1;ratioP1;P1;durP2;ratioP2;P2;SDS_P1;SDS_P2;PMS_P1;PMS_P2;Temp;Humidity;BMP_temperature;BMP_pressure;BME280_temperature;BME280_humidity;BME280_pressure;Samples;Min_cycle;Max_cycle;Signal;HPM_P1;HPM_P2
2023/07/01 00:00:52;;;;;;;5.82;2.30;;;19.40;99.90;;;;;;5008168;28;20026;-78
2023/07/01 00:03:18;;;;;;;7.10;2.15;;;19.40;99.90;;;;;;5026798;28;20029;-78
2023/07/01 00:05:44;;;;;;;4.47;2.30;;;19.30;99.90;;;;;;5005010;28;20029;-78
2023/07/01 00:08:09;;;;;;;4.68;2.38;;;19.30;99.90;;;;;;5036228;28;20104;-79
2023/07/01 00:10:35;;;;;;;3.72;2.30;;;19.20;99.90;;;;;;5009835;28;20076;-78
2023/07/01 00:13:01;;;;;;;4.32;2.28;;;19.20;99.90;;;;;;5016069;28;20052;-78
2023/07/01 00:15:26;;;;;;;3.67;2.10;;;19.20;99.90;;;;;;5019516;28;20112;-78
2023/07/01 00:17:54;;;;;;;4.50;2.30;;;19.20;99.90;;;;;;5018829;28;20386;-78
2023/07/01 00:20:21;;;;;;;5.03;2.53;;;19.20;99.90;;;;;;5029011;28;20550;-79
2023/07/01 00:22:47;;;;;;;5.57;2.60;;;19.10;99.90;;;;;;4999156;28;20387;-78
2023/07/01 00:25:12;;;;;;;4.32;2.80;;;19.20;99.90;;;;;;4998318;28;20028;-79
2023/07/01 00:27:38;;;;;;;9.13;2.47;;;19.10;99.90;;;;;;4998729;28;20041;-78
2023/07/01 00:30:04;;;;;;;6.65;2.78;;;19.00;99.90;;;;;;4998441;28;20026;-79
2023/07/01 00:32:29;;;;;;;3.85;2.47;;;19.00;99.90;;;;;;4998739;28;20030;-78
2023/07/01 00:34:55;;;;;;;5.82;2.20;;;18.90;99.90;;;;;;5016516;28;20475;-78
2023/07/01 00:37:21;;;;;;;5.35;2.30;;;19.00;99.90;;;;;;5013497;28;20103;-78
2023/07/01 00:39:46;;;;;;;6.88;2.67;;;19.00;99.90;;;;;;5036010;28;20025;-78
2023/07/01 00:42:12;;;;;;;5.60;2.53;;;18.90;99.90;;;;;;5017932;28;20457;-79
2023/07/01 00:44:37;;;;;;;6.43;2.60;;;18.90;99.90;;;;;;5026542;28;20105;-78
2023/07/01 00:47:04;;;;;;;4.85;2.90;;;18.90;99.90;;;;;;5028345;28;20029;-80
2023/07/01 00:49:30;;;;;;;4.20;2.20;;;18.80;99.90;;;;;;5001097;28;20132;-79
2023/07/01 00:51:56;;;;;;;5.93;2.90;;;18.80;99.90;;;;;;5012923;28;20025;-79
2023/07/01 00:54:23;;;;;;;6.10;3.15;;;18.80;99.90;;;;;;5013668;28;20024;-78
2023/07/01 00:56:48;;;;;;;6.30;2.78;;;18.80;99.90;;;;;;5006807;28;20032;-79
2023/07/01 00:59:14;;;;;;;6.90;3.25;;;18.70;99.90;;;;;;4998183;28;20109;-79
2023/07/01 01:01:43;;;;;;;6.25;2.83;;;18.70;99.90;;;;;;4998405;28;20026;-79
2023/07/01 01:04:38;;;;;;;4.72;2.58;;;18.60;99.90;;;;;;4997989;28;20088;-79
2023/07/01 01:07:20;;;;;;;5.30;3.22;;;18.60;99.90;;;;;;4999960;28;20050;-79
2023/07/01 01:09:55;;;;;;;6.05;2.83;;;18.60;99.90;;;;;;4978977;28;20030;-78
2023/07/01 01:12:22;;;;;;;7.20;2.78;;;18.50;99.90;;;;;;5011041;28;20072;-79
2023/07/01 01:14:50;;;;;;;7.00;3.08;;;18.50;99.90;;;;;;4997837;28;20029;-80
2023/07/01 01:17:19;;;;;;;5.13;3.05;;;18.50;99.90;;;;;;5012234;28;20037;-79
2023/07/01 01:20:02;;;;;;;7.30;3.17;;;18.40;99.90;;;;;;5001165;28;20028;-79
2023/07/01 01:22:49;;;;;;;5.63;2.80;;;18.40;99.90;;;;;;5002820;28;20030;-79
2023/07/01 01:25:24;;;;;;;4.10;2.42;;;18.30;99.90;;;;;;5003281;28;20113;-78
2023/07/01 01:27:53;;;;;;;10.82;3.00;;;18.30;99.90;;;;;;5015595;28;20029;-79
2023/07/01 01:30:22;;;;;;;2.97;2.40;;;18.30;99.90;;;;;;5015233;28;20087;-78
2023/07/01 01:32:49;;;;;;;7.82;2.58;;;18.20;99.90;;;;;;4998009;28;20030;-79
2023/07/01 01:35:14;;;;;;;4.32;2.30;;;18.20;99.90;;;;;;5011789;28;20486;-78
2023/07/01 01:37:49;;;;;;;4.85;2.78;;;18.10;99.90;;;;;;4999717;28;20124;-79
2023/07/01 01:40:19;;;;;;;9.35;2.97;;;18.00;99.90;;;;;;5015491;28;20088;-79
2023/07/01 01:42:45;;;;;;;8.73;2.70;;;18.10;99.90;;;;;;5025687;28;20026;-79
2023/07/01 01:45:15;;;;;;;7.68;2.90;;;18.10;99.90;;;;;;5003758;28;20494;-78
2023/07/01 01:47:41;;;;;;;6.15;2.92;;;18.00;99.90;;;;;;5013350;28;20462;-78
2023/07/01 01:50:11;;;;;;;5.75;2.80;;;18.00;99.90;;;;;;5013521;28;20076;-78
2023/07/01 01:52:39;;;;;;;7.93;2.55;;;18.00;99.90;;;;;;5017167;28;20021;-78
2023/07/01 01:55:08;;;;;;;5.05;2.72;;;18.00;99.90;;;;;;5016757;28;20367;-79
2023/07/01 01:57:33;;;;;;;3.97;2.58;;;18.00;99.90;;;;;;4995331;28;20029;-79
2023/07/01 01:59:59;;;;;;;7.07;3.05;;;18.00;99.90;;;;;;4997490;28;20028;-81
2023/07/01 02:02:25;;;;;;;8.60;3.00;;;18.00;99.90;;;;;;5022897;28;20029;-77
2023/07/01 02:04:51;;;;;;;6.53;2.80;;;17.90;99.90;;;;;;5017124;28;20378;-79
2023/07/01 02:07:16;;;;;;;4.65;2.35;;;17.90;99.90;;;;;;5016528;28;20041;-77
2023/07/01 02:09:42;;;;;;;8.35;3.20;;;17.90;99.90;;;;;;5016884;28;20026;-79
2023/07/01 02:12:08;;;;;;;5.07;2.42;;;17.80;99.90;;;;;;5011347;28;20104;-81
2023/07/01 02:14:33;;;;;;;6.15;2.88;;;17.90;99.90;;;;;;5023906;28;20027;-85
2023/07/01 02:16:59;;;;;;;5.43;2.45;;;17.80;99.90;;;;;;5031832;28;20060;-85
2023/07/01 02:19:24;;;;;;;6.53;2.63;;;17.80;99.90;;;;;;5017629;28;20029;-85
2023/07/01 02:21:50;;;;;;;5.70;2.90;;;17.90;99.90;;;;;;5032324;28;20022;-83
2023/07/01 02:24:16;;;;;;;6.13;3.00;;;17.80;99.90;;;;;;4997526;28;20081;-81
2023/07/01 02:26:41;;;;;;;8.70;2.78;;;17.80;99.90;;;;;;5014549;28;20045;-80
2023/07/01 02:29:08;;;;;;;5.93;2.75;;;17.80;99.90;;;;;;4997266;28;20029;-83
2023/07/01 02:31:34;;;;;;;5.82;2.85;;;17.80;99.90;;;;;;5015489;28;20049;-84
2023/07/01 02:34:03;;;;;;;3.83;2.53;;;17.70;99.90;;;;;;5034892;28;20037;-82
2023/07/01 02:36:29;;;;;;;5.60;3.08;;;17.80;99.90;;;;;;5017152;28;20044;-80
2023/07/01 02:38:55;;;;;;;6.43;3.20;;;17.80;99.90;;;;;;5017273;28;20029;-79
2023/07/01 02:41:21;;;;;;;6.15;3.17;;;17.80;99.90;;;;;;5016736;28;20312;-83
2023/07/01 02:43:46;;;;;;;7.53;2.90;;;17.70;99.90;;;;;;5018302;28;20101;-80
2023/07/01 02:46:12;;;;;;;7.80;3.25;;;17.70;99.90;;;;;;5016752;28;20033;-81
2023/07/01 02:48:37;;;;;;;6.00;2.97;;;17.70;99.90;;;;;;5016699;28;20132;-79
2023/07/01 02:51:04;;;;;;;4.35;3.00;;;17.60;99.90;;;;;;5021144;28;20026;-79
2023/07/01 02:53:30;;;;;;;7.53;3.20;;;17.60;99.90;;;;;;4997012;28;20026;-80
2023/07/01 02:55:56;;;;;;;4.75;2.95;;;17.60;99.90;;;;;;4997060;28;20040;-79
2023/07/01 02:58:22;;;;;;;6.00;2.92;;;17.60;99.90;;;;;;5013345;28;20022;-78
2023/07/01 03:00:48;;;;;;;6.35;2.83;;;17.60;99.90;;;;;;5015113;28;20116;-81
2023/07/01 03:03:13;;;;;;;4.82;2.75;;;17.60;99.90;;;;;;5013536;28;20029;-82
2023/07/01 03:05:39;;;;;;;7.72;3.10;;;17.60;99.90;;;;;;5012456;28;20033;-82
2023/07/01 03:08:05;;;;;;;6.18;3.22;;;17.60;99.90;;;;;;5000348;28;20029;-82
2023/07/01 03:10:32;;;;;;;4.05;2.65;;;17.50;99.90;;;;;;5016622;28;20108;-80
2023/07/01 03:12:58;;;;;;;7.03;3.35;;;17.60;99.90;;;;;;5029055;28;20083;-83
2023/07/01 03:15:23;;;;;;;4.78;3.25;;;17.50;99.90;;;;;;5015957;28;20030;-80
2023/07/01 03:17:49;;;;;;;6.93;3.15;;;17.50;99.90;;;;;;5014326;28;20100;-82
2023/07/01 03:20:24;;;;;;;5.10;2.95;;;17.50;99.90;;;;;;5020346;28;20031;-81
2023/07/01 03:22:54;;;;;;;5.18;2.97;;;17.50;99.90;;;;;;5016624;28;20029;-82
2023/07/01 03:25:20;;;;;;;4.43;2.47;;;17.50;99.90;;;;;;5018294;28;20026;-80
2023/07/01 03:27:46;;;;;;;4.95;2.63;;;17.50;99.90;;;;;;5030386;28;20033;-80
2023/07/01 03:30:13;;;;;;;4.25;2.60;;;17.40;99.90;;;;;;4996411;28;20092;-83
2023/07/01 03:32:44;;;;;;;7.68;3.03;;;17.40;99.90;;;;;;5014227;28;20026;-83
2023/07/01 03:35:11;;;;;;;6.32;3.10;;;17.40;99.90;;;;;;4996156;28;20030;-81
2023/07/01 03:37:41;;;;;;;7.30;2.90;;;17.40;99.90;;;;;;5004310;28;20053;-81
2023/07/01 03:40:10;;;;;;;6.22;3.05;;;17.40;99.90;;;;;;5016415;28;20026;-81
2023/07/01 03:42:37;;;;;;;11.45;2.70;;;17.40;99.90;;;;;;5016918;28;20041;-84
2023/07/01 03:45:05;;;;;;;6.38;2.90;;;17.40;99.90;;;;;;5016073;28;20048;-86
2023/07/01 03:47:31;;;;;;;4.95;2.90;;;17.30;99.90;;;;;;5016021;28;20076;-78
2023/07/01 03:49:56;;;;;;;6.13;2.60;;;17.30;99.90;;;;;;5012327;28;20042;-80
2023/07/01 03:52:22;;;;;;;5.72;2.63;;;17.30;99.90;;;;;;5020261;28;20014;-83
2023/07/01 03:54:47;;;;;;;4.65;2.83;;;17.30;99.90;;;;;;5016085;28;20071;-79
2023/07/01 03:57:13;;;;;;;5.65;2.47;;;17.30;99.90;;;;;;5032639;28;20026;-82
2023/07/01 03:59:39;;;;;;;5.05;2.58;;;17.30;99.90;;;;;;5015587;28;20486;-82
2023/07/01 04:02:05;;;;;;;6.93;3.05;;;17.30;99.90;;;;;;5009047;28;20109;-80
2023/07/01 04:04:31;;;;;;;4.60;2.63;;;17.30;99.90;;;;;;4997621;28;20124;-81
2023/07/01 04:06:57;;;;;;;6.03;2.70;;;17.40;99.90;;;;;;5013778;28;20590;-81
2023/07/01 04:09:22;;;;;;;7.10;3.10;;;17.30;99.90;;;;;;5012677;28;20022;-83
2023/07/01 04:11:48;;;;;;;4.28;2.80;;;17.30;99.90;;;;;;5013061;28;20075;-82
2023/07/01 04:14:15;;;;;;;5.15;2.80;;;17.30;99.90;;;;;;4995713;28;20076;-82
2023/07/01 04:16:43;;;;;;;4.25;2.63;;;17.30;99.90;;;;;;4996361;28;20040;-78
2023/07/01 04:19:09;;;;;;;5.60;2.50;;;17.30;99.90;;;;;;5009173;28;20022;-81
2023/07/01 04:21:34;;;;;;;5.38;2.80;;;17.30;99.90;;;;;;5021815;28;20028;-82
2023/07/01 04:24:04;;;;;;;5.82;2.78;;;17.30;99.90;;;;;;4996707;28;20024;-78
2023/07/01 04:26:33;;;;;;;5.50;2.60;;;17.30;99.90;;;;;;5001410;28;20422;-80
2023/07/01 04:28:58;;;;;;;4.43;2.78;;;17.30;99.90;;;;;;5013389;28;20037;-79
2023/07/01 04:31:24;;;;;;;4.88;2.85;;;17.30;99.90;;;;;;5012655;28;20030;-80
2023/07/01 04:33:49;;;;;;;6.57;2.80;;;17.30;99.90;;;;;;5015162;28;20073;-80
2023/07/01 04:36:15;;;;;;;5.20;2.85;;;17.30;99.90;;;;;;5008146;28;20034;-80
2023/07/01 04:38:41;;;;;;;5.07;2.50;;;17.30;99.90;;;;;;4995847;28;20033;-81
2023/07/01 04:41:06;;;;;;;5.05;2.88;;;17.40;99.90;;;;;;5020715;28;20018;-84
2023/07/01 04:43:32;;;;;;;3.53;2.35;;;17.40;99.90;;;;;;4996115;28;20033;-79
2023/07/01 04:45:58;;;;;;;4.00;2.22;;;17.40;99.90;;;;;;5015484;28;20056;-80
2023/07/01 04:48:23;;;;;;;5.18;2.58;;;17.40;99.90;;;;;;4995195;28;20033;-81
2023/07/01 04:50:49;;;;;;;5.80;2.38;;;17.40;99.90;;;;;;5015782;28;20033;-80
2023/07/01 04:53:15;;;;;;;4.18;2.13;;;17.40;99.90;;;;;;4999068;28;20030;-81
2023/07/01 04:55:40;;;;;;;3.65;2.30;;;17.50;99.90;;;;;;4999655;28;20048;-80
2023/07/01 04:58:06;;;;;;;6.65;2.38;;;17.40;99.90;;;;;;4999732;28;20056;-82
2023/07/01 05:00:32;;;;;;;3.00;2.03;;;17.50;99.90;;;;;;5008048;28;20025;-81
2023/07/01 05:02:58;;;;;;;4.50;2.30;;;17.40;99.90;;;;;;5024562;28;20022;-82
2023/07/01 05:05:25;;;;;;;5.00;2.10;;;17.40;99.90;;;;;;5016826;28;20033;-80
2023/07/01 05:07:50;;;;;;;2.65;2.22;;;17.40;99.90;;;;;;4999162;28;20068;-79
2023/07/01 05:10:16;;;;;;;4.68;2.35;;;17.50;99.90;;;;;;4998640;28;20029;-79
2023/07/01 05:12:41;;;;;;;5.28;2.08;;;17.40;99.90;;;;;;4998773;28;20034;-79
2023/07/01 05:15:08;;;;;;;6.57;2.22;;;17.50;99.90;;;;;;5025219;28;20034;-82
2023/07/01 05:17:33;;;;;;;3.35;2.40;;;17.50;99.90;;;;;;5036339;28;20064;-81
2023/07/01 05:19:59;;;;;;;4.65;2.40;;;17.50;99.90;;;;;;5015014;28;20018;-82
2023/07/01 05:22:24;;;;;;;3.80;2.03;;;17.50;99.90;;;;;;4998700;28;20025;-82
2023/07/01 05:24:50;;;;;;;2.97;1.80;;;17.60;99.90;;;;;;5016936;28;20101;-82
2023/07/01 05:27:15;;;;;;;3.58;1.92;;;17.60;99.90;;;;;;5016787;28;20045;-81
2023/07/01 05:29:41;;;;;;;4.25;1.70;;;17.60;99.90;;;;;;5018928;28;20116;-82
2023/07/01 05:32:07;;;;;;;5.82;1.95;;;17.70;99.90;;;;;;5011401;28;20025;-83
2023/07/01 05:34:33;;;;;;;5.22;1.77;;;17.80;99.90;;;;;;5008534;28;20026;-82
2023/07/01 05:36:58;;;;;;;5.20;2.10;;;17.80;99.90;;;;;;5028101;28;20084;-83
2023/07/01 05:39:24;;;;;;;2.75;1.63;;;17.90;99.90;;;;;;5018163;28;20356;-84
2023/07/01 05:41:50;;;;;;;6.60;1.67;;;18.00;99.90;;;;;;4999143;28;20025;-84
2023/07/01 05:44:16;;;;;;;3.05;1.48;;;18.00;99.90;;;;;;5004967;28;20466;-84
2023/07/01 05:46:41;;;;;;;4.15;1.52;;;18.00;99.90;;;;;;5036526;28;20447;-86
2023/07/01 05:49:08;;;;;;;7.57;1.98;;;18.00;99.90;;;;;;5005709;28;20104;-82
2023/07/01 05:51:34;;;;;;;3.53;1.52;;;18.10;99.90;;;;;;5000051;28;20079;-82
2023/07/01 05:53:59;;;;;;;4.60;1.85;;;18.10;99.90;;;;;;5014801;28;20382;-80
2023/07/01 05:56:25;;;;;;;3.85;1.67;;;18.10;99.90;;;;;;4996958;28;20548;-80
2023/07/01 05:58:51;;;;;;;4.35;1.95;;;18.10;99.90;;;;;;5001621;28;20112;-80
2023/07/01 06:01:16;;;;;;;6.88;1.80;;;18.20;99.90;;;;;;5007640;28;20037;-87
2023/07/01 06:03:42;;;;;;;4.05;1.90;;;18.20;99.90;;;;;;5008250;28;20036;-88
2023/07/01 06:06:07;;;;;;;7.13;2.00;;;18.20;99.90;;;;;;5019934;28;20030;-88
2023/07/01 06:08:33;;;;;;;4.05;2.08;;;18.20;99.90;;;;;;5019097;28;20033;-87
2023/07/01 06:10:59;;;;;;;4.82;1.85;;;18.30;99.90;;;;;;5020484;28;20032;-88
2023/07/01 06:13:24;;;;;;;6.43;1.88;;;18.30;99.90;;;;;;5037549;28;20075;-87
2023/07/01 06:15:50;;;;;;;5.97;1.75;;;18.30;99.90;;;;;;5001080;28;20057;-88
2023/07/01 06:18:15;;;;;;;5.40;2.00;;;18.30;99.90;;;;;;5026599;28;20105;-87
2023/07/01 06:20:42;;;;;;;6.25;2.13;;;18.30;99.90;;;;;;5037860;28;20025;-88
2023/07/01 06:23:08;;;;;;;6.65;2.25;;;18.30;99.90;;;;;;5007380;28;20026;-84
2023/07/01 06:25:34;;;;;;;5.88;1.70;;;18.40;99.90;;;;;;4997886;28;20095;-83
2023/07/01 06:27:59;;;;;;;4.68;2.00;;;18.40;99.90;;;;;;5017617;28;20545;-84
2023/07/01 06:30:25;;;;;;;3.60;1.85;;;18.40;99.90;;;;;;5016916;28;20124;-83
2023/07/01 06:32:51;;;;;;;6.55;1.85;;;18.40;99.90;;;;;;5026688;28;20057;-81
2023/07/01 06:35:17;;;;;;;5.18;1.90;;;18.40;99.90;;;;;;5012437;28;20148;-85
2023/07/01 06:37:42;;;;;;;3.35;1.90;;;18.50;99.90;;;;;;5012768;28;20429;-81
2023/07/01 06:40:08;;;;;;;5.10;1.73;;;18.50;99.90;;;;;;5029290;28;20032;-86
2023/07/01 06:42:35;;;;;;;8.70;1.83;;;18.60;99.90;;;;;;4997035;28;20033;-86
2023/07/01 06:45:01;;;;;;;5.35;1.60;;;18.60;99.90;;;;;;5017292;28;20466;-85
2023/07/01 06:47:26;;;;;;;4.00;1.75;;;18.70;99.90;;;;;;5016812;28;20029;-87
2023/07/01 06:49:52;;;;;;;5.60;1.80;;;18.80;99.90;;;;;;5017475;28;20054;-86
2023/07/01 06:52:17;;;;;;;5.68;1.80;;;18.80;99.90;;;;;;5016277;28;20049;-86
2023/07/01 06:54:43;;;;;;;2.63;1.50;;;18.90;99.90;;;;;;5016426;28;20061;-86
2023/07/01 06:57:08;;;;;;;3.55;1.42;;;18.90;99.90;;;;;;5034452;28;20041;-83
2023/07/01 06:59:34;;;;;;;3.05;1.83;;;19.00;99.90;;;;;;5000149;28;20045;-85
2023/07/01 07:02:00;;;;;;;3.72;1.90;;;19.00;99.90;;;;;;5022797;28;20029;-87
2023/07/01 07:04:25;;;;;;;4.20;1.50;;;19.10;99.90;;;;;;4996610;28;20030;-88
2023/07/01 07:06:51;;;;;;;7.50;2.38;;;19.10;99.90;;;;;;4998139;28;20050;-87
2023/07/01 07:09:17;;;;;;;4.20;1.90;;;19.20;99.90;;;;;;5009166;28;20112;-82
2023/07/01 07:11:43;;;;;;;4.50;1.52;;;19.20;99.90;;;;;;5016749;28;20026;-84
2023/07/01 07:14:08;;;;;;;6.20;1.80;;;19.20;99.90;;;;;;5016202;28;20032;-83
2023/07/01 07:16:37;;;;;;;8.18;1.50;;;19.20;99.90;;;;;;5012359;28;20029;-88
2023/07/01 07:19:02;;;;;;;4.22;1.70;;;19.20;99.90;;;;;;5015899;28;20075;-89
2023/07/01 07:21:28;;;;;;;4.13;1.40;;;19.30;99.90;;;;;;5016983;28;20033;-89
2023/07/01 07:23:53;;;;;;;4.35;1.67;;;19.30;99.90;;;;;;5034065;28;20030;-87
2023/07/01 07:26:19;;;;;;;4.13;1.77;;;19.30;99.90;;;;;;5033501;28;20021;-85
2023/07/01 07:28:45;;;;;;;6.43;1.83;;;19.30;99.90;;;;;;5016445;28;20025;-84
2023/07/01 07:31:10;;;;;;;4.95;1.70;;;19.40;99.90;;;;;;5008638;28;20026;-85
2023/07/01 07:33:36;;;;;;;4.47;1.70;;;19.40;99.90;;;;;;4998203;28;20040;-84
2023/07/01 07:36:02;;;;;;;3.03;1.70;;;19.40;99.90;;;;;;4989717;28;20482;-84
2023/07/01 07:38:27;;;;;;;5.72;1.92;;;19.40;99.90;;;;;;5015177;28;20029;-83
2023/07/01 07:40:53;;;;;;;4.18;2.13;;;19.50;99.90;;;;;;4995177;28;20061;-84
2023/07/01 07:43:18;;;;;;;5.25;2.10;;;19.50;99.90;;;;;;4988959;28;20029;-83
2023/07/01 07:45:44;;;;;;;7.60;2.33;;;19.50;99.90;;;;;;4986221;28;20472;-85
2023/07/01 07:48:10;;;;;;;4.38;1.73;;;19.50;99.90;;;;;;5014215;28;20037;-82
2023/07/01 07:50:36;;;;;;;6.47;2.38;;;19.50;99.90;;;;;;5015493;28;20144;-84
2023/07/01 07:53:03;;;;;;;6.78;1.95;;;19.60;99.90;;;;;;5005449;28;20351;-83
2023/07/01 07:55:33;;;;;;;10.32;2.83;;;19.60;99.90;;;;;;5011272;28;20029;-85
2023/07/01 07:57:59;;;;;;;10.52;3.03;;;19.60;99.90;;;;;;5033599;28;20037;-84
2023/07/01 08:00:25;;;;;;;6.72;3.13;;;19.60;99.90;;;;;;5007243;28;20475;-84
2023/07/01 08:02:50;;;;;;;7.38;3.33;;;19.60;99.90;;;;;;4993508;28;20038;-89
2023/07/01 08:05:17;;;;;;;8.40;3.40;;;19.70;99.90;;;;;;5024520;28;20022;-83
2023/07/01 08:07:43;;;;;;;10.05;3.83;;;19.70;99.90;;;;;;5026237;28;20060;-87
2023/07/01 08:10:09;;;;;;;9.57;3.70;;;19.70;99.90;;;;;;5002080;28;20034;-87
2023/07/01 08:12:35;;;;;;;8.45;3.60;;;19.80;99.90;;;;;;5013281;28;20120;-87
2023/07/01 08:15:01;;;;;;;7.65;3.40;;;19.90;99.90;;;;;;4996305;28;20036;-87
2023/07/01 08:17:26;;;;;;;8.25;3.33;;;19.90;99.90;;;;;;5013697;28;20026;-89
2023/07/01 08:19:52;;;;;;;7.97;3.47;;;19.90;99.90;;;;;;4998869;28;20037;-88
2023/07/01 08:22:18;;;;;;;9.18;3.50;;;19.90;99.90;;;;;;4998338;28;20022;-88
2023/07/01 08:24:43;;;;;;;6.15;3.63;;;19.90;99.90;;;;;;5016919;28;20018;-86
2023/07/01 08:27:09;;;;;;;9.07;3.83;;;20.00;99.90;;;;;;4999846;28;20072;-86
2023/07/01 08:29:35;;;;;;;11.07;4.00;;;20.00;99.90;;;;;;5009406;28;20034;-85
2023/07/01 08:32:00;;;;;;;7.72;3.72;;;20.00;99.90;;;;;;5006373;28;20060;-86
2023/07/01 08:34:26;;;;;;;8.48;4.03;;;20.10;99.90;;;;;;5019231;28;20156;-85
2023/07/01 08:36:52;;;;;;;8.23;3.90;;;20.10;99.90;;;;;;5028877;28;20061;-86
2023/07/01 08:39:17;;;;;;;9.98;3.97;;;20.20;99.90;;;;;;5008417;28;20026;-85
2023/07/01 08:41:51;;;;;;;8.43;3.78;;;20.30;99.90;;;;;;5008515;28;20026;-85
2023/07/01 08:44:19;;;;;;;9.65;3.47;;;20.50;99.90;;;;;;5016753;28;20037;-85
2023/07/01 08:46:47;;;;;;;8.90;3.78;;;20.50;99.90;;;;;;5028957;28;20395;-82
2023/07/01 08:49:16;;;;;;;10.95;4.20;;;20.60;99.90;;;;;;4999206;28;20057;-89
2023/07/01 08:51:44;;;;;;;8.73;3.92;;;20.60;99.90;;;;;;5032030;28;20375;-88
2023/07/01 08:54:10;;;;;;;9.20;3.90;;;20.70;99.90;;;;;;5003535;28;20038;-87
2023/07/01 08:56:36;;;;;;;11.43;3.47;;;20.80;99.90;;;;;;5010167;28;20041;-85
2023/07/01 08:59:02;;;;;;;8.02;3.90;;;20.80;99.50;;;;;;5019304;28;20026;-84
2023/07/01 09:01:30;;;;;;;9.93;3.83;;;20.80;99.90;;;;;;5023095;28;20467;-83
2023/07/01 09:03:56;;;;;;;8.05;3.78;;;20.90;99.80;;;;;;5010684;28;20026;-87
2023/07/01 09:06:22;;;;;;;11.70;3.25;;;21.00;99.60;;;;;;5012353;28;20113;-88
2023/07/01 09:08:48;;;;;;;9.43;4.07;;;21.20;99.50;;;;;;5012946;28;20025;-88
2023/07/01 09:11:15;;;;;;;4.55;2.35;;;21.20;98.90;;;;;;5029708;28;20044;-89
2023/07/01 09:13:41;;;;;;;5.38;2.50;;;21.30;97.90;;;;;;5005331;28;20030;-87
2023/07/01 09:16:08;;;;;;;7.90;2.45;;;21.40;97.80;;;;;;5004943;28;20402;-88
2023/07/01 09:18:35;;;;;;;3.53;1.80;;;21.60;97.50;;;;;;5020994;28;20025;-87
2023/07/01 09:21:01;;;;;;;3.83;1.40;;;21.70;96.50;;;;;;5013414;28;20037;-88
2023/07/01 09:23:31;;;;;;;4.90;1.52;;;21.70;95.90;;;;;;4999050;28;20026;-89
2023/07/01 09:26:14;;;;;;;7.32;2.40;;;21.80;96.20;;;;;;5030962;28;20112;-88
2023/07/01 09:28:47;;;;;;;5.57;2.00;;;21.80;96.00;;;;;;4999907;28;20029;-87
2023/07/01 09:31:15;;;;;;;5.20;2.55;;;21.90;96.10;;;;;;5011506;28;20116;-88
2023/07/01 09:33:58;;;;;;;3.72;1.92;;;21.90;96.10;;;;;;5001581;28;20037;-87
2023/07/01 09:36:25;;;;;;;6.53;2.33;;;22.10;95.90;;;;;;4979546;28;20038;-88
2023/07/01 09:38:54;;;;;;;4.72;2.38;;;22.10;95.80;;;;;;5000024;28;20021;-88
2023/07/01 09:41:24;;;;;;;3.92;1.90;;;22.10;95.80;;;;;;5014628;28;20026;-82
2023/07/01 09:43:50;;;;;;;5.82;1.75;;;22.20;95.40;;;;;;4998879;28;20049;-86
2023/07/01 09:46:16;;;;;;;4.63;1.95;;;22.40;95.80;;;;;;5002145;28;20031;-85
2023/07/01 09:48:53;;;;;;;5.10;1.63;;;22.60;95.20;;;;;;5009346;28;20124;-88
2023/07/01 09:51:21;;;;;;;4.05;1.98;;;22.60;93.90;;;;;;4998244;28;20057;-84
2023/07/01 09:53:47;;;;;;;7.63;1.50;;;22.60;94.00;;;;;;5017503;28;20029;-88
2023/07/01 09:56:18;;;;;;;5.03;1.55;;;22.70;93.90;;;;;;5007275;28;20025;-85
2023/07/01 09:58:45;;;;;;;4.30;1.65;;;22.80;93.70;;;;;;5008229;28;20025;-87
2023/07/01 10:01:12;;;;;;;4.00;1.65;;;22.80;93.30;;;;;;5007031;28;20018;-85
2023/07/01 10:03:38;;;;;;;4.13;1.50;;;22.70;93.30;;;;;;5029482;28;20029;-87
2023/07/01 10:06:03;;;;;;;4.30;1.13;;;22.70;93.10;;;;;;5007000;28;20411;-88
2023/07/01 10:08:29;;;;;;;2.97;1.27;;;22.70;92.70;;;;;;5024889;28;20388;-87
2023/07/01 10:11:21;;;;;;;3.70;1.05;;;22.70;92.60;;;;;;4999426;28;20022;-86
2023/07/01 10:13:50;;;;;;;2.88;1.17;;;22.80;92.70;;;;;;5011954;28;20057;-88
2023/07/01 10:16:17;;;;;;;4.00;1.40;;;22.90;92.50;;;;;;4992939;28;20045;-88
2023/07/01 10:18:43;;;;;;;3.78;1.30;;;23.00;93.00;;;;;;5008416;28;20021;-87
2023/07/01 10:21:24;;;;;;;2.50;1.35;;;23.20;93.00;;;;;;5008651;28;20029;-88
2023/07/01 10:23:54;;;;;;;2.53;1.10;;;23.10;91.90;;;;;;5024396;28;20037;-86
2023/07/01 10:26:35;;;;;;;4.32;1.45;;;23.20;91.80;;;;;;5002416;28;20026;-87
2023/07/01 10:29:29;;;;;;;3.88;1.30;;;23.20;91.70;;;;;;4998425;28;20536;-86
2023/07/01 10:32:12;;;;;;;4.00;1.30;;;23.10;91.40;;;;;;5007584;28;20071;-85
2023/07/01 10:34:53;;;;;;;4.90;1.45;;;23.10;92.00;;;;;;5008973;28;20116;-88
2023/07/01 10:37:19;;;;;;;3.80;1.67;;;23.00;91.90;;;;;;5004428;28;20045;-87
2023/07/01 10:39:45;;;;;;;4.38;1.70;;;23.10;91.70;;;;;;5002318;28;20064;-87
2023/07/01 10:42:31;;;;;;;5.57;1.50;;;23.10;91.70;;;;;;4997483;28;20061;-88
2023/07/01 10:45:11;;;;;;;5.22;1.67;;;23.00;91.50;;;;;;4997860;28;20030;-83
2023/07/01 10:47:48;;;;;;;5.38;1.60;;;22.90;92.10;;;;;;5013670;28;20510;-84
2023/07/01 10:50:15;;;;;;;6.95;2.05;;;22.80;91.90;;;;;;5000379;28;20053;-85
2023/07/01 10:52:55;;;;;;;5.78;1.90;;;22.80;92.50;;;;;;5034740;28;20033;-83
2023/07/01 10:55:34;;;;;;;6.85;1.85;;;23.00;92.50;;;;;;5012585;28;20482;-84
2023/07/01 10:58:20;;;;;;;5.78;2.10;;;23.20;92.40;;;;;;4982314;28;20038;-83
2023/07/01 11:00:45;;;;;;;6.03;2.13;;;23.30;92.10;;;;;;5017739;28;20036;-87
2023/07/01 11:03:33;;;;;;;5.40;2.35;;;23.30;91.70;;;;;;5015954;28;20379;-85
2023/07/01 11:06:12;;;;;;;9.27;2.60;;;23.20;91.70;;;;;;5007501;28;20095;-83
2023/07/01 11:08:49;;;;;;;6.13;2.60;;;23.20;91.80;;;;;;5016473;28;20037;-92
2023/07/01 11:11:25;;;;;;;4.30;2.22;;;23.30;92.00;;;;;;5028143;28;20030;-91
2023/07/01 11:14:11;;;;;;;4.70;1.92;;;23.30;91.50;;;;;;5010746;28;20014;-86
2023/07/01 11:16:38;;;;;;;3.33;1.80;;;23.20;91.80;;;;;;5027089;28;20030;-87
2023/07/01 11:19:06;;;;;;;4.65;1.88;;;23.20;92.10;;;;;;5009046;28;20034;-86
2023/07/01 11:21:32;;;;;;;4.82;1.58;;;23.10;91.70;;;;;;5019000;28;20021;-86
2023/07/01 11:24:04;;;;;;;7.32;1.70;;;23.10;92.00;;;;;;5015865;28;20026;-90
2023/07/01 11:26:35;;;;;;;5.97;1.90;;;23.00;92.10;;;;;;5007321;28;20041;-90
2023/07/01 11:29:02;;;;;;;6.75;1.67;;;22.90;92.30;;;;;;5010978;28;20055;-91
2023/07/01 11:31:36;;;;;;;7.55;1.88;;;23.00;92.40;;;;;;4999310;28;20029;-91
2023/07/01 11:34:02;;;;;;;3.90;1.60;;;23.00;92.30;;;;;;5002756;28;20026;-91
2023/07/01 11:36:39;;;;;;;4.00;1.60;;;23.00;92.20;;;;;;5002234;28;20037;-90
2023/07/01 11:39:14;;;;;;;5.63;1.58;;;23.00;92.30;;;;;;5025248;28;20030;-87
2023/07/01 11:41:42;;;;;;;3.55;1.60;;;23.00;92.30;;;;;;5016777;28;20075;-83
2023/07/01 11:44:12;;;;;;;2.42;1.40;;;22.90;92.60;;;;;;5000383;28;20044;-83
2023/07/01 11:46:41;;;;;;;3.25;1.58;;;22.90;92.90;;;;;;5007282;28;20083;-87
2023/07/01 11:49:13;;;;;;;3.30;1.70;;;22.80;92.80;;;;;;5011495;28;20504;-82
2023/07/01 11:51:41;;;;;;;2.17;1.33;;;22.90;92.50;;;;;;5000682;28;20490;-86
2023/07/01 11:54:07;;;;;;;5.20;1.70;;;23.00;92.10;;;;;;5002472;28;20034;-86
2023/07/01 11:56:33;;;;;;;2.72;1.40;;;23.10;92.20;;;;;;5005978;28;20018;-93
2023/07/01 11:58:58;;;;;;;2.95;1.30;;;23.20;92.10;;;;;;5002600;28;20030;-87
2023/07/01 12:01:25;;;;;;;6.40;1.52;;;23.20;91.90;;;;;;5000909;28;20027;-89
2023/07/01 12:03:55;;;;;;;3.05;1.30;;;23.20;91.80;;;;;;5020947;28;20030;-87
2023/07/01 12:06:22;;;;;;;4.90;1.38;;;23.20;92.00;;;;;;5020059;28;20492;-89
2023/07/01 12:09:03;;;;;;;4.55;1.50;;;23.30;91.90;;;;;;5017533;28;20121;-87
2023/07/01 12:11:28;;;;;;;2.20;1.10;;;23.30;91.90;;;;;;5015690;28;20033;-89
2023/07/01 12:13:54;;;;;;;3.22;1.23;;;23.30;91.70;;;;;;5008926;28;20035;-88
2023/07/01 12:16:20;;;;;;;2.38;1.00;;;23.40;91.70;;;;;;5016709;28;20022;-87
2023/07/01 12:18:46;;;;;;;4.38;1.30;;;23.40;91.50;;;;;;5019127;28;20026;-86
2023/07/01 12:21:12;;;;;;;2.28;1.42;;;23.40;91.70;;;;;;5024581;28;20529;-88
2023/07/01 12:23:44;;;;;;;5.80;1.30;;;23.40;91.30;;;;;;5007381;28;20026;-89
2023/07/01 12:26:11;;;;;;;4.93;1.52;;;23.40;91.60;;;;;;5005854;28;20030;-89
2023/07/01 12:28:40;;;;;;;3.70;1.25;;;23.50;91.40;;;;;;4999311;28;20057;-87
2023/07/01 12:31:07;;;;;;;4.13;1.20;;;23.60;90.90;;;;;;5012284;28;20648;-88
2023/07/01 12:33:34;;;;;;;3.05;1.17;;;23.60;91.20;;;;;;5001004;28;20023;-88
2023/07/01 12:36:01;;;;;;;1.80;1.20;;;23.60;91.20;;;;;;5013728;28;20076;-91
2023/07/01 12:38:28;;;;;;;2.08;1.50;;;23.70;91.60;;;;;;5015531;28;20041;-93
2023/07/01 12:40:55;;;;;;;3.38;1.30;;;23.60;91.00;;;;;;4999320;28;20030;-91
2023/07/01 12:43:25;;;;;;;2.67;1.30;;;23.50;91.40;;;;;;5005492;28;20141;-92
2023/07/01 12:45:50;;;;;;;2.83;1.08;;;23.70;91.40;;;;;;5015913;28;20026;-90
2023/07/01 12:48:16;;;;;;;4.05;1.65;;;24.00;90.60;;;;;;5012933;28;20034;-85